createdAt,value
2022-08-05T00:02:07.886Z,47.58
2022-08-05T00:06:01.740Z,47.67
2022-08-05T00:08:36.668Z,47.89
2022-08-05T00:11:49.228Z,48.32
2022-08-05T00:14:57.791Z,48.10
2022-08-05T00:17:59.958Z,47.54
2022-08-05T00:21:06.528Z,48.41
2022-08-05T00:24:10.965Z,49.53
2022-08-05T00:27:14.061Z,49.73
2022-08-05T00:30:19.071Z,49.68
2022-08-05T00:34:56.664Z,49.11
2022-08-05T00:37:10.663Z,49.98
2022-08-05T00:40:17.896Z,49.96
2022-08-05T00:43:41.634Z,50.20
2022-08-05T00:46:54.071Z,51.46
2022-08-05T00:50:04.806Z,50.74
2022-08-05T00:53:16.014Z,51.29
2022-08-05T00:56:30.129Z,52.84
2022-08-05T00:59:44.142Z,52.97
2022-08-05T01:02:46.685Z,54.04
2022-08-05T01:05:54.629Z,56.18
2022-08-05T01:08:57.368Z,56.25
2022-08-05T01:12:09.117Z,57.18
2022-08-05T01:15:34.978Z,57.80
2022-08-05T01:18:38.628Z,57.93
2022-08-05T01:22:15.605Z,58.50
2022-08-05T01:25:40.220Z,59.04
2022-08-05T01:28:43.621Z,60.23
2022-08-05T01:31:48.773Z,60.34
2022-08-05T01:34:57.519Z,60.35
2022-08-05T01:38:02.301Z,60.57
2022-08-05T01:41:07.029Z,61.46
2022-08-05T01:44:11.173Z,63.35
2022-08-05T01:47:15.522Z,63.27
2022-08-05T01:50:28.764Z,62.88
2022-08-05T01:53:55.099Z,63.05
2022-08-05T01:58:11.649Z,65.54
2022-08-05T02:00:18.896Z,65.50
2022-08-05T02:03:34.488Z,64.60
2022-08-05T02:06:38.821Z,64.80
2022-08-05T02:09:41.486Z,65.00
2022-08-05T02:12:50.978Z,65.47
2022-08-05T02:16:29.184Z,65.22
2022-08-05T02:19:35.107Z,66.24
2022-08-05T02:22:43.751Z,66.77
2022-08-05T02:25:49.111Z,65.97
2022-08-05T02:28:53.552Z,66.68
2022-08-05T02:31:59.484Z,65.40
2022-08-05T02:35:14.174Z,67.69
2022-08-05T02:38:19.765Z,67.22
2022-08-05T02:41:28.946Z,65.24
2022-08-05T02:44:46.408Z,67.05
2022-08-05T02:48:06.578Z,64.52
2022-08-05T02:51:12.179Z,67.14
2022-08-05T02:54:34.856Z,64.38
2022-08-05T02:58:20.309Z,68.47
2022-08-05T03:01:02.907Z,69.70
2022-08-05T03:04:14.052Z,66.44
2022-08-05T03:07:24.732Z,67.64
2022-08-05T03:11:53.611Z,67.20
2022-08-05T03:14:08.065Z,64.55
2022-08-05T03:17:10.377Z,68.40
2022-08-05T03:20:13.572Z,69.49
2022-08-05T03:23:16.199Z,70.07
2022-08-05T03:26:31.813Z,69.44
2022-08-05T03:29:45.107Z,69.72
2022-08-05T03:32:57.467Z,70.21
2022-08-05T03:36:00.037Z,70.09
2022-08-05T03:39:08.485Z,69.80
2022-08-05T03:42:22.668Z,70.78
2022-08-05T03:45:29.764Z,70.98
2022-08-05T03:48:51.955Z,71.86
2022-08-05T03:52:38.911Z,72.11
2022-08-05T03:56:04.087Z,70.83
2022-08-05T03:58:51.266Z,71.17
2022-08-05T04:01:59.017Z,71.17
2022-08-05T04:05:01.896Z,68.99
2022-08-05T04:08:30.015Z,66.57
2022-08-05T04:11:47.659Z,61.15
2022-08-05T04:14:52.266Z,57.47
2022-08-05T04:17:56.581Z,53.60
2022-08-05T04:20:59.737Z,52.86
2022-08-05T04:24:06.412Z,50.83
2022-08-05T04:27:09.333Z,49.94
2022-08-05T04:30:11.837Z,47.89
2022-08-05T04:33:14.905Z,48.93
2022-08-05T04:36:49.506Z,51.05
2022-08-05T04:39:40.108Z,48.03
2022-08-05T04:42:42.400Z,44.84
2022-08-05T04:45:48.323Z,44.07
2022-08-05T04:48:51.624Z,43.43
2022-08-05T04:52:00.218Z,42.64
2022-08-05T04:55:05.327Z,41.11
2022-08-05T04:58:21.647Z,42.18
2022-08-05T05:02:06.090Z,40.12
2022-08-05T05:04:49.744Z,40.92
2022-08-05T05:07:56.499Z,39.26
2022-08-05T05:11:03.318Z,41.07
2022-08-05T05:14:06.426Z,38.22
2022-08-05T05:17:10.899Z,36.93
2022-08-05T05:20:13.902Z,36.47
2022-08-05T05:23:19.938Z,36.83
2022-08-05T05:26:28.727Z,37.81
2022-08-05T05:30:03.460Z,38.42
2022-08-05T05:33:00.791Z,39.60
2022-08-05T05:36:05.909Z,38.25
2022-08-05T05:39:10.923Z,38.01
2022-08-05T05:42:13.745Z,36.62
2022-08-05T05:45:16.825Z,37.35
2022-08-05T05:48:19.622Z,36.92
2022-08-05T05:51:29.974Z,39.47
2022-08-05T05:54:52.130Z,34.75
2022-08-05T05:57:54.288Z,36.27
2022-08-05T06:00:56.495Z,35.42
2022-08-05T06:04:01.546Z,37.29
2022-08-05T06:07:05.792Z,36.97
2022-08-05T06:10:10.546Z,35.02
2022-08-05T06:13:12.910Z,34.89
2022-08-05T06:16:31.635Z,34.92
2022-08-05T06:19:35.781Z,33.17
2022-08-05T06:22:38.108Z,32.94
2022-08-05T06:26:12.976Z,32.94
2022-08-05T06:29:23.585Z,33.17
2022-08-05T06:32:28.919Z,31.89
2022-08-05T06:36:06.954Z,31.28
2022-08-05T06:38:54.842Z,31.74
2022-08-05T06:42:04.356Z,31.10
2022-08-05T06:45:08.603Z,30.09
2022-08-05T06:48:54.549Z,29.73
2022-08-05T06:51:33.613Z,29.36
2022-08-05T06:54:35.957Z,28.87
2022-08-05T06:58:03.493Z,28.17
2022-08-05T07:01:01.895Z,27.84
2022-08-05T07:04:04.429Z,28.41
2022-08-05T07:07:07.986Z,28.52
2022-08-05T07:10:10.776Z,28.32
2022-08-05T07:13:56.849Z,27.31
2022-08-05T07:17:59.256Z,28.80
2022-08-05T07:20:33.865Z,27.93
2022-08-05T07:23:40.590Z,28.27
2022-08-05T07:26:52.493Z,27.55
2022-08-05T07:30:22.945Z,27.13
2022-08-05T07:33:35.081Z,27.77
2022-08-05T07:36:39.728Z,27.31
2022-08-05T07:40:26.810Z,26.26
2022-08-05T07:43:14.660Z,27.06
2022-08-05T07:46:25.351Z,25.78
2022-08-05T07:49:28.169Z,27.58
2022-08-05T07:52:30.525Z,26.80
2022-08-05T07:55:44.633Z,26.43
2022-08-05T07:58:59.158Z,26.24
2022-08-05T08:02:03.112Z,26.06
2022-08-05T08:05:05.870Z,25.76
2022-08-05T08:08:12.776Z,25.65
2022-08-05T08:11:17.671Z,25.86
2022-08-05T08:14:29.710Z,25.76
2022-08-05T08:17:33.019Z,26.19
2022-08-05T08:21:00.472Z,25.30
2022-08-05T08:24:04.984Z,25.60
2022-08-05T08:27:08.537Z,25.80
2022-08-05T08:30:29.433Z,24.51
2022-08-05T08:33:38.092Z,25.39
2022-08-05T08:36:46.360Z,24.74
2022-08-05T08:39:54.856Z,24.65
2022-08-05T08:42:57.542Z,24.54
2022-08-05T08:46:20.093Z,24.45
2022-08-05T08:50:29.755Z,24.88
2022-08-05T08:52:53.025Z,24.75
2022-08-05T08:56:04.478Z,24.03
2022-08-05T08:59:14.688Z,23.81
2022-08-05T09:02:24.199Z,23.99
2022-08-05T09:05:38.767Z,25.36
2022-08-05T09:08:51.530Z,24.14
2022-08-05T09:11:55.791Z,23.88
2022-08-05T09:15:06.374Z,22.97
2022-08-05T09:18:09.763Z,23.31
2022-08-05T09:21:21.241Z,23.87
2022-08-05T09:24:37.999Z,23.56
2022-08-05T09:28:04.744Z,25.15
2022-08-05T09:31:23.462Z,24.03
2022-08-05T09:34:53.623Z,23.62
2022-08-05T09:38:12.871Z,24.02
2022-08-05T09:41:20.100Z,22.89
2022-08-05T09:44:40.637Z,23.47
2022-08-05T09:47:54.980Z,23.12
2022-08-05T09:51:14.874Z,23.24
2022-08-05T09:54:31.133Z,23.48
2022-08-05T09:57:45.233Z,23.37
2022-08-05T10:00:59.944Z,24.13
2022-08-05T10:04:10.446Z,23.60
2022-08-05T10:07:19.884Z,22.89
2022-08-05T10:10:36.939Z,23.02
2022-08-05T10:13:44.096Z,24.26
2022-08-05T10:16:52.831Z,23.15
2022-08-05T10:20:03.778Z,23.58
2022-08-05T10:23:34.140Z,23.09
2022-08-05T10:26:49.115Z,24.33
2022-08-05T10:30:41.556Z,22.89
2022-08-05T10:33:17.700Z,22.25
2022-08-05T10:36:23.462Z,22.74
2022-08-05T10:40:03.280Z,22.76
2022-08-05T10:42:58.926Z,22.99
2022-08-05T10:46:06.199Z,22.09
2022-08-05T10:49:10.407Z,22.71
2022-08-05T10:52:53.939Z,22.90
2022-08-05T10:56:21.047Z,23.45
2022-08-05T11:00:03.060Z,22.58
2022-08-05T11:03:23.162Z,23.65
2022-08-05T11:06:30.657Z,23.76
2022-08-05T11:09:45.627Z,23.09
2022-08-05T11:12:50.415Z,24.15
2022-08-05T11:16:23.380Z,25.30
2022-08-05T11:20:16.813Z,25.14
2022-08-05T11:24:02.356Z,23.94
2022-08-05T11:27:50.124Z,23.00
2022-08-05T11:31:06.442Z,23.22
2022-08-05T11:34:09.067Z,21.75
2022-08-05T11:38:29.936Z,21.85
2022-08-05T11:41:35.103Z,22.12
2022-08-05T11:44:40.517Z,22.50
2022-08-05T11:47:55.732Z,22.79
2022-08-05T11:50:58.249Z,21.65
2022-08-05T11:54:01.831Z,21.55
2022-08-05T11:57:07.893Z,21.48
2022-08-05T12:00:29.192Z,22.29
2022-08-05T12:03:56.030Z,22.12
2022-08-05T12:07:01.842Z,21.77
2022-08-05T12:10:09.585Z,22.69
2022-08-05T12:13:18.853Z,20.74
2022-08-05T12:16:39.967Z,22.13
2022-08-05T12:20:16.745Z,22.22
2022-08-05T12:23:12.684Z,22.61
2022-08-05T12:26:15.382Z,21.63
2022-08-05T12:29:22.859Z,21.33
2022-08-05T12:32:26.046Z,22.11
2022-08-05T12:35:36.999Z,22.16
2022-08-05T12:38:42.360Z,21.49
2022-08-05T12:41:45.881Z,21.10
2022-08-05T12:44:48.645Z,21.50
2022-08-05T12:48:16.947Z,21.68
2022-08-05T12:52:10.625Z,21.30
2022-08-05T12:54:37.035Z,21.60
2022-08-05T12:58:38.768Z,22.56
2022-08-05T13:02:00.844Z,21.63
2022-08-05T13:04:28.413Z,21.53
2022-08-05T13:07:57.453Z,21.67
2022-08-05T13:11:02.222Z,22.43
2022-08-05T13:14:10.610Z,22.74
2022-08-05T13:17:32.021Z,22.53
2022-08-05T13:20:43.910Z,22.89
2022-08-05T13:23:52.214Z,23.11
2022-08-05T13:26:54.554Z,23.21
2022-08-05T13:30:31.662Z,23.16
2022-08-05T13:34:21.627Z,22.14
2022-08-05T13:36:42.510Z,21.73
2022-08-05T13:40:15.116Z,22.20
2022-08-05T13:43:12.112Z,21.33
2022-08-05T13:46:16.333Z,22.00
2022-08-05T13:49:35.340Z,21.83
2022-08-05T13:52:37.943Z,21.24
2022-08-05T13:55:40.778Z,21.44
2022-08-05T13:58:44.399Z,22.08
2022-08-05T14:01:59.560Z,21.45
2022-08-05T14:05:11.906Z,21.96
2022-08-05T14:08:20.763Z,21.32
2022-08-05T14:11:31.324Z,21.04
2022-08-05T14:14:33.892Z,20.78
2022-08-05T14:17:36.782Z,21.69
2022-08-05T14:20:39.019Z,20.54
2022-08-05T14:23:41.227Z,20.39
2022-08-05T14:26:56.605Z,21.17
2022-08-05T14:30:06.829Z,21.14
2022-08-05T14:33:24.146Z,21.28
2022-08-05T14:36:26.562Z,21.49
2022-08-05T14:39:28.831Z,20.59
2022-08-05T14:42:32.071Z,20.52
2022-08-05T14:45:34.719Z,21.64
2022-08-05T14:48:36.900Z,21.47
2022-08-05T14:51:42.403Z,21.43
2022-08-05T14:54:52.883Z,21.23
2022-08-05T14:57:56.419Z,21.62
2022-08-05T15:01:00.425Z,21.30
2022-08-05T15:04:04.013Z,21.40
2022-08-05T15:07:06.741Z,21.42
2022-08-05T15:10:09.882Z,21.31
2022-08-05T15:13:12.348Z,21.41
2022-08-05T15:16:14.547Z,21.82
2022-08-05T15:19:23.708Z,21.27
2022-08-05T15:22:27.411Z,21.85
2022-08-05T15:25:40.968Z,21.92
2022-08-05T15:28:52.838Z,21.19
2022-08-05T15:31:55.379Z,21.57
2022-08-05T15:35:04.008Z,21.68
2022-08-05T15:38:36.082Z,21.53
2022-08-05T15:41:56.230Z,21.57
2022-08-05T15:44:56.496Z,21.43
2022-08-05T15:47:58.761Z,21.28
2022-08-05T15:51:05.727Z,21.45
2022-08-05T15:54:08.515Z,22.76
2022-08-05T15:57:11.310Z,22.00
2022-08-05T16:00:16.980Z,21.79
2022-08-05T16:03:28.779Z,22.04
2022-08-05T16:06:31.018Z,22.24
2022-08-05T16:09:33.816Z,22.31
2022-08-05T16:12:36.183Z,23.17
2022-08-05T16:15:39.776Z,22.89
2022-08-05T16:18:52.542Z,22.74
2022-08-05T16:22:00.325Z,22.56
2022-08-05T16:25:09.441Z,22.84
2022-08-05T16:28:13.623Z,22.48
2022-08-05T16:31:17.948Z,23.13
2022-08-05T16:34:22.154Z,22.85
2022-08-05T16:38:15.192Z,24.28
2022-08-05T16:40:51.789Z,23.07
2022-08-05T16:43:58.109Z,23.53
2022-08-05T16:47:00.592Z,23.45
2022-08-05T16:50:04.024Z,23.51
2022-08-05T16:53:12.048Z,24.16
2022-08-05T16:56:25.163Z,24.05
2022-08-05T16:59:27.714Z,24.23
2022-08-05T17:02:32.808Z,23.93
2022-08-05T17:05:37.642Z,24.34
2022-08-05T17:08:52.217Z,24.48
2022-08-05T17:11:59.290Z,25.73
2022-08-05T17:15:02.892Z,26.36
2022-08-05T17:18:05.193Z,27.40
2022-08-05T17:21:16.414Z,29.31
2022-08-05T17:24:35.118Z,28.46
2022-08-05T17:27:40.955Z,28.75
2022-08-05T17:30:51.993Z,29.41
2022-08-05T17:33:56.014Z,29.27
2022-08-05T17:37:00.588Z,29.56
2022-08-05T17:40:05.092Z,30.92
2022-08-05T17:43:12.609Z,30.91
2022-08-05T17:46:14.812Z,31.90
2022-08-05T17:49:17.339Z,32.68
2022-08-05T17:52:20.372Z,32.26
2022-08-05T17:55:34.114Z,32.33
2022-08-05T17:58:39.687Z,34.06
2022-08-05T18:01:49.204Z,34.87
2022-08-05T18:04:53.639Z,35.10
2022-08-05T18:07:57.410Z,33.77
2022-08-05T18:11:00.084Z,34.23
2022-08-05T18:14:04.382Z,34.42
2022-08-05T18:18:01.260Z,36.16
2022-08-05T18:20:32.267Z,37.05
2022-08-05T18:23:37.952Z,37.90
2022-08-05T18:26:48.198Z,37.72
2022-08-05T18:29:54.499Z,37.51
2022-08-05T18:33:00.971Z,36.87
2022-08-05T18:36:11.896Z,38.13
2022-08-05T18:39:42.448Z,38.87
2022-08-05T18:42:40.899Z,38.97
2022-08-05T18:45:44.180Z,40.26
2022-08-05T18:48:52.050Z,40.61
2022-08-05T18:52:13.424Z,39.47
2022-08-05T18:55:15.977Z,40.77
2022-08-05T18:58:18.759Z,41.94
2022-08-05T19:01:33.377Z,41.83
2022-08-05T19:05:01.382Z,42.68
2022-08-05T19:08:12.192Z,42.72
2022-08-05T19:11:28.100Z,42.98
2022-08-05T19:15:02.417Z,42.89
2022-08-05T19:18:09.400Z,43.76
2022-08-05T19:21:13.014Z,43.80
2022-08-05T19:24:15.207Z,43.07
2022-08-05T19:27:17.428Z,43.48
2022-08-05T19:30:21.916Z,43.78
2022-08-05T19:33:35.749Z,43.57
2022-08-05T19:36:38.937Z,43.28
2022-08-05T19:39:45.986Z,43.84
2022-08-05T19:43:00.965Z,46.47
2022-08-05T19:46:16.878Z,46.41
2022-08-05T19:49:29.461Z,46.02
2022-08-05T19:52:32.402Z,45.02
2022-08-05T19:56:12.580Z,46.30
2022-08-05T19:58:57.061Z,46.17
2022-08-05T20:02:01.429Z,46.39
2022-08-05T20:05:09.682Z,47.48
2022-08-05T20:08:19.932Z,47.92
2022-08-05T20:11:24.052Z,48.06
2022-08-05T20:14:27.359Z,47.78
2022-08-05T20:17:29.585Z,47.52
2022-08-05T20:20:37.353Z,46.77
2022-08-05T20:23:50.223Z,46.39
2022-08-05T20:26:53.960Z,47.49
2022-08-05T20:29:58.935Z,47.43
2022-08-05T20:33:01.333Z,46.71
2022-08-05T20:36:04.274Z,47.29
2022-08-05T20:39:06.534Z,41.58
2022-08-05T20:42:15.390Z,39.04
2022-08-05T20:45:24.010Z,37.65
2022-08-05T20:48:46.249Z,37.37
2022-08-05T20:51:54.868Z,36.97
2022-08-05T20:55:54.270Z,36.02
2022-08-05T20:58:19.846Z,36.16
2022-08-05T21:01:26.104Z,35.32
2022-08-05T21:04:39.806Z,35.30
2022-08-05T21:07:50.593Z,34.98
2022-08-05T21:10:54.300Z,35.04
2022-08-05T21:14:00.692Z,36.07
2022-08-05T21:17:04.961Z,38.28
2022-08-05T21:20:10.147Z,39.99
2022-08-05T21:23:12.922Z,40.32
2022-08-05T21:26:16.449Z,41.00
2022-08-05T21:29:19.921Z,40.97
2022-08-05T21:32:28.887Z,41.14
2022-08-05T21:35:55.353Z,41.53
2022-08-05T21:38:54.087Z,41.29
2022-08-05T21:42:01.902Z,41.48
2022-08-05T21:45:04.948Z,41.92
2022-08-05T21:48:08.229Z,41.71
2022-08-05T21:52:15.385Z,42.37
2022-08-05T21:54:32.888Z,42.46
2022-08-05T21:57:42.578Z,42.52
2022-08-05T22:00:50.913Z,43.88
2022-08-05T22:03:54.093Z,43.08
2022-08-05T22:06:57.329Z,43.36
2022-08-05T22:09:59.746Z,47.17
2022-08-05T22:13:09.341Z,47.68
2022-08-05T22:16:42.043Z,48.82
2022-08-05T22:19:57.487Z,48.34
2022-08-05T22:23:24.949Z,46.77
2022-08-05T22:27:06.881Z,46.51
2022-08-05T22:30:15.028Z,50.94
2022-08-05T22:33:19.521Z,51.70
2022-08-05T22:36:41.701Z,51.54
2022-08-05T22:39:45.456Z,49.92
2022-08-05T22:42:53.093Z,50.55
2022-08-05T22:46:00.771Z,50.41
2022-08-05T22:49:05.747Z,52.99
2022-08-05T22:52:15.466Z,53.40
2022-08-05T22:55:56.559Z,51.87
2022-08-05T22:58:53.183Z,50.72
2022-08-05T23:02:05.610Z,53.32
2022-08-05T23:05:10.062Z,51.38
2022-08-05T23:08:12.470Z,54.29
2022-08-05T23:11:16.547Z,53.14
2022-08-05T23:14:22.712Z,55.65
2022-08-05T23:17:59.611Z,55.13
2022-08-05T23:20:56.444Z,55.09
2022-08-05T23:24:00.646Z,53.59
2022-08-05T23:27:06.005Z,53.80
2022-08-05T23:30:08.710Z,53.69
2022-08-05T23:33:16.029Z,53.45
2022-08-05T23:36:28.334Z,56.05
2022-08-05T23:39:53.807Z,55.93
2022-08-05T23:42:56.972Z,54.89
2022-08-05T23:45:59.196Z,55.08
2022-08-05T23:49:15.696Z,54.24
2022-08-05T23:52:36.100Z,53.72
2022-08-05T23:55:52.191Z,51.67
2022-08-05T23:58:54.770Z,51.42
